Time;durP1;ratioP1;P1;durP2;ratioP2;P2;SDS_P1;SDS_P2;PMS_P1;PMS_P2;Temp;Humidity;BMP_temperature;BMP_pressure;BME280_temperature;BME280_humidity;BME280_pressure;Samples;Min_cycle;Max_cycle;Signal;HPM_P1;HPM_P2
2022/06/30 00:00:36;;;;;;;13.85;7.65;;;22.70;99.90;;;;;;5101745;28;20197;-82
2022/06/30 00:03:03;;;;;;;10.82;7.07;;;;;;;;;;5093993;28;20657;-82
2022/06/30 00:05:29;;;;;;;11.48;7.78;;;22.80;99.90;;;;;;5105650;28;20201;-83
2022/06/30 00:07:55;;;;;;;11.30;7.93;;;;;;;;;;5118668;28;20158;-83
2022/06/30 00:10:22;;;;;;;8.90;6.90;;;;;;;;;;5118442;28;20174;-83
2022/06/30 00:12:48;;;;;;;10.52;7.65;;;;;;;;;;5099388;28;20155;-83
2022/06/30 00:15:14;;;;;;;12.88;7.07;;;;;;;;;;5094020;28;20211;-83
2022/06/30 00:17:40;;;;;;;10.10;7.07;;;;;;;;;;5075715;28;20232;-83
2022/06/30 00:20:06;;;;;;;10.25;7.70;;;23.00;99.90;;;;;;5075539;28;20230;-83
2022/06/30 00:22:31;;;;;;;10.93;7.70;;;23.00;99.90;;;;;;5093151;28;20194;-83
2022/06/30 00:24:57;;;;;;;12.23;8.45;;;23.00;99.90;;;;;;5074925;28;20216;-83
2022/06/30 00:27:22;;;;;;;11.95;7.50;;;22.90;99.90;;;;;;5075613;28;20190;-83
2022/06/30 00:29:48;;;;;;;10.38;7.38;;;22.90;99.90;;;;;;5093822;28;20182;-83
2022/06/30 00:32:14;;;;;;;11.30;7.90;;;22.90;99.90;;;;;;5093353;28;20255;-83
2022/06/30 00:34:39;;;;;;;12.27;8.55;;;22.80;99.90;;;;;;5074996;28;20272;-83
2022/06/30 00:37:05;;;;;;;10.13;7.22;;;22.80;99.90;;;;;;5058941;28;20181;-83
2022/06/30 00:39:30;;;;;;;10.25;8.05;;;22.80;99.90;;;;;;5075674;28;20208;-83
2022/06/30 00:41:56;;;;;;;9.75;7.63;;;22.70;99.90;;;;;;5058837;28;20720;-82
2022/06/30 00:44:22;;;;;;;16.90;8.98;;;22.70;99.90;;;;;;5093514;28;20189;-82
2022/06/30 00:46:48;;;;;;;11.82;7.82;;;22.70;99.90;;;;;;5092636;28;20670;-83
2022/06/30 00:49:17;;;;;;;9.82;7.68;;;22.60;99.90;;;;;;5075443;28;20182;-82
2022/06/30 00:51:43;;;;;;;11.65;8.15;;;22.60;99.90;;;;;;5093121;28;20182;-82
2022/06/30 00:54:11;;;;;;;10.57;7.38;;;22.60;99.90;;;;;;5058268;28;20178;-82
2022/06/30 00:56:40;;;;;;;11.18;7.93;;;22.60;99.90;;;;;;5092951;28;20643;-83
2022/06/30 00:59:08;;;;;;;10.02;7.40;;;22.50;99.90;;;;;;5075243;28;20184;-83
2022/06/30 01:01:36;;;;;;;11.27;8.18;;;22.50;99.90;;;;;;5075749;28;20210;-83
2022/06/30 01:04:01;;;;;;;11.32;8.18;;;22.50;99.90;;;;;;5097633;28;20178;-82
2022/06/30 01:06:28;;;;;;;12.23;9.07;;;22.50;99.90;;;;;;5045748;28;20180;-82
2022/06/30 01:08:54;;;;;;;11.20;7.63;;;22.50;99.90;;;;;;5079439;28;20210;-83
2022/06/30 01:14:04;;;;;;;10.68;7.47;;;22.40;99.90;;;;;;5097917;28;20272;-82
2022/06/30 01:16:30;;;;;;;10.88;8.00;;;22.40;99.90;;;;;;5079048;28;20658;-82
2022/06/30 01:18:55;;;;;;;11.52;8.27;;;22.30;99.90;;;;;;5096883;28;20214;-83
2022/06/30 01:21:21;;;;;;;10.80;7.70;;;22.30;99.90;;;;;;5097462;28;20262;-82
2022/06/30 01:23:47;;;;;;;10.27;7.88;;;22.30;99.90;;;;;;5097034;28;20185;-82
2022/06/30 01:26:12;;;;;;;13.88;8.07;;;22.30;99.90;;;;;;5079002;28;20586;-82
2022/06/30 01:28:38;;;;;;;12.38;8.10;;;22.20;99.90;;;;;;5096450;28;20262;-82
2022/06/30 01:31:04;;;;;;;14.60;7.70;;;22.20;99.90;;;;;;5097168;28;20212;-83
2022/06/30 01:33:29;;;;;;;10.70;7.93;;;22.20;99.90;;;;;;5097652;28;20178;-82
2022/06/30 01:35:56;;;;;;;15.70;8.27;;;22.20;99.90;;;;;;5096754;28;20170;-82
2022/06/30 01:38:22;;;;;;;12.25;8.77;;;22.20;99.90;;;;;;5096892;28;20189;-82
2022/06/30 01:40:48;;;;;;;10.68;7.72;;;22.20;99.90;;;;;;5096879;28;20181;-82
2022/06/30 01:43:14;;;;;;;12.55;7.88;;;22.20;99.90;;;;;;5096747;28;20542;-82
2022/06/30 01:45:41;;;;;;;11.77;8.20;;;22.20;99.90;;;;;;5078370;28;20182;-83
2022/06/30 01:48:07;;;;;;;10.50;7.72;;;22.10;99.90;;;;;;5096057;28;20532;-82
2022/06/30 01:50:34;;;;;;;11.63;8.27;;;22.10;99.90;;;;;;5096758;28;20183;-82
2022/06/30 01:53:00;;;;;;;15.00;8.80;;;22.10;99.90;;;;;;5078356;28;20178;-82
2022/06/30 01:55:26;;;;;;;10.98;8.02;;;22.10;99.90;;;;;;5078322;28;20181;-82
2022/06/30 01:57:52;;;;;;;10.73;7.68;;;22.00;99.90;;;;;;5095974;28;20186;-82
2022/06/30 02:00:26;;;;;;;11.48;8.25;;;22.00;99.90;;;;;;5096532;28;20220;-83
2022/06/30 02:02:53;;;;;;;11.35;8.20;;;22.00;99.90;;;;;;5095979;28;20247;-83
2022/06/30 02:05:19;;;;;;;15.68;8.82;;;22.00;99.90;;;;;;5095860;28;20580;-83
2022/06/30 02:07:45;;;;;;;10.85;8.13;;;22.00;99.90;;;;;;5096012;28;20182;-83
2022/06/30 02:10:14;;;;;;;15.98;9.48;;;21.90;99.90;;;;;;5096371;28;20523;-82
2022/06/30 02:12:47;;;;;;;13.80;9.55;;;21.90;99.90;;;;;;5077001;28;20189;-82
2022/06/30 02:15:32;;;;;;;12.20;8.68;;;21.90;99.90;;;;;;5095329;28;20585;-82
2022/06/30 02:17:59;;;;;;;13.02;9.02;;;21.80;99.90;;;;;;5077611;28;20175;-82
2022/06/30 02:20:25;;;;;;;13.98;9.18;;;21.80;99.90;;;;;;5095750;28;20241;-82
2022/06/30 02:22:58;;;;;;;12.43;8.82;;;21.80;99.90;;;;;;5077767;28;20671;-82
2022/06/30 02:25:24;;;;;;;15.32;9.88;;;21.80;99.90;;;;;;5096094;28;20163;-82
2022/06/30 02:27:50;;;;;;;14.52;9.00;;;;;;;;;;5095482;28;20667;-82
2022/06/30 02:30:16;;;;;;;11.07;8.55;;;21.70;99.90;;;;;;5095609;28;20270;-82
2022/06/30 02:32:42;;;;;;;14.35;9.23;;;21.70;99.90;;;;;;5077894;28;20175;-83
2022/06/30 02:35:09;;;;;;;15.13;9.95;;;21.80;99.90;;;;;;5095813;28;20177;-82
2022/06/30 02:37:34;;;;;;;14.18;9.43;;;21.70;99.90;;;;;;5095712;28;20166;-82
2022/06/30 02:40:00;;;;;;;12.63;8.80;;;21.70;99.90;;;;;;5095279;28;20190;-83
2022/06/30 02:42:26;;;;;;;13.57;9.43;;;21.70;99.90;;;;;;5095225;28;20198;-83
2022/06/30 02:44:51;;;;;;;14.13;9.88;;;21.70;99.90;;;;;;5095405;28;20210;-83
2022/06/30 02:47:17;;;;;;;15.88;9.98;;;21.70;99.90;;;;;;5059702;28;20658;-83
2022/06/30 02:49:43;;;;;;;12.88;9.15;;;21.70;99.90;;;;;;5094636;28;20202;-86
2022/06/30 02:52:08;;;;;;;14.32;8.98;;;21.70;99.90;;;;;;5062752;28;20190;-83
2022/06/30 02:54:34;;;;;;;17.33;9.27;;;21.70;99.90;;;;;;5077086;28;20189;-83
2022/06/30 02:57:00;;;;;;;14.10;9.32;;;21.60;99.90;;;;;;5076758;28;20540;-86
2022/06/30 02:59:25;;;;;;;13.65;9.13;;;21.70;99.90;;;;;;5057361;28;20278;-86
2022/06/30 03:01:51;;;;;;;14.15;9.38;;;21.70;99.90;;;;;;5057092;28;20293;-87
2022/06/30 03:04:16;;;;;;;15.43;10.32;;;21.70;99.90;;;;;;5056689;28;20187;-87
2022/06/30 03:06:42;;;;;;;14.88;9.82;;;21.70;99.90;;;;;;5082278;28;20179;-87
2022/06/30 03:09:08;;;;;;;12.73;9.45;;;21.70;99.90;;;;;;5077008;28;20224;-86
2022/06/30 03:11:34;;;;;;;14.38;10.00;;;;;;;;;;5077092;28;20201;-86
2022/06/30 03:13:59;;;;;;;15.35;9.82;;;21.70;99.90;;;;;;5076646;28;20183;-87
2022/06/30 03:16:25;;;;;;;17.65;10.15;;;;;;;;;;5076778;28;20166;-87
2022/06/30 03:18:52;;;;;;;16.17;10.63;;;21.70;99.90;;;;;;5093345;28;20174;-86
2022/06/30 03:21:20;;;;;;;13.35;10.20;;;21.80;99.90;;;;;;5094904;28;20202;-87
2022/06/30 03:23:46;;;;;;;15.57;10.18;;;21.80;99.90;;;;;;5094211;28;20198;-86
2022/06/30 03:26:12;;;;;;;17.63;11.50;;;21.80;99.90;;;;;;5093214;28;20178;-86
2022/06/30 03:28:38;;;;;;;15.57;10.40;;;;;;;;;;5093722;28;20183;-86
2022/06/30 03:31:04;;;;;;;18.85;11.23;;;22.00;99.90;;;;;;5067006;28;20183;-86
2022/06/30 03:33:29;;;;;;;16.25;11.18;;;22.10;99.90;;;;;;5094696;28;20255;-86
2022/06/30 03:35:57;;;;;;;16.23;11.45;;;22.10;99.90;;;;;;5055850;28;20186;-86
2022/06/30 03:38:22;;;;;;;20.40;12.02;;;22.10;99.90;;;;;;5076675;28;20179;-86
2022/06/30 03:40:48;;;;;;;16.20;11.52;;;22.10;99.90;;;;;;5076174;28;20190;-86
2022/06/30 03:43:13;;;;;;;19.10;13.00;;;22.20;99.90;;;;;;5076042;28;20549;-85
2022/06/30 03:45:39;;;;;;;19.90;12.13;;;22.20;99.90;;;;;;5076501;28;20213;-85
2022/06/30 03:48:06;;;;;;;16.10;10.68;;;22.20;99.90;;;;;;5094041;28;20182;-85
2022/06/30 03:50:35;;;;;;;16.77;11.52;;;22.30;99.90;;;;;;5059874;28;20213;-86
2022/06/30 03:53:01;;;;;;;16.05;10.68;;;22.40;99.90;;;;;;5094258;28;20219;-85
2022/06/30 03:55:27;;;;;;;16.17;10.88;;;22.50;99.90;;;;;;5094457;28;20686;-85
2022/06/30 03:57:53;;;;;;;16.38;10.60;;;22.50;99.90;;;;;;5094189;28;20175;-88
2022/06/30 04:00:19;;;;;;;14.02;10.55;;;22.60;99.90;;;;;;5076397;28;20166;-86
2022/06/30 04:02:45;;;;;;;16.42;10.63;;;;;;;;;;5075932;28;20210;-86
2022/06/30 04:05:11;;;;;;;13.43;9.82;;;22.70;99.90;;;;;;5079557;28;20179;-81
2022/06/30 04:07:45;;;;;;;16.83;10.10;;;22.70;99.90;;;;;;5083641;28;20178;-80
2022/06/30 04:10:13;;;;;;;13.85;9.30;;;22.80;99.90;;;;;;5104491;28;20165;-81
2022/06/30 04:12:39;;;;;;;13.93;9.80;;;;;;;;;;5105395;28;20178;-81
2022/06/30 04:15:06;;;;;;;15.82;10.23;;;23.00;99.90;;;;;;5105535;28;20197;-81
2022/06/30 04:17:33;;;;;;;16.30;9.38;;;;;;;;;;5102513;28;20266;-81
2022/06/30 04:20:03;;;;;;;17.23;10.65;;;23.20;99.90;;;;;;5093537;28;20230;-81
2022/06/30 04:22:29;;;;;;;17.30;10.93;;;23.20;99.90;;;;;;5093523;28;20199;-81
2022/06/30 04:24:54;;;;;;;15.95;10.50;;;23.20;99.90;;;;;;5058981;28;20670;-81
2022/06/30 04:27:20;;;;;;;14.05;9.40;;;23.30;99.90;;;;;;5092512;28;20194;-81
2022/06/30 04:29:46;;;;;;;14.85;10.75;;;23.40;99.90;;;;;;5085097;28;20191;-82
2022/06/30 04:34:56;;;;;;;14.98;10.82;;;;;;;;;;5072887;28;20270;-82
2022/06/30 04:37:22;;;;;;;19.40;11.13;;;;;;;;;;5082115;28;20194;-83
2022/06/30 04:39:48;;;;;;;16.45;11.25;;;;;;;;;;5073723;28;20190;-84
2022/06/30 04:42:14;;;;;;;13.80;9.77;;;;;;;;;;5091709;28;20676;-84
2022/06/30 04:44:41;;;;;;;12.02;9.02;;;;;;;;;;5073304;28;20316;-84
2022/06/30 04:47:07;;;;;;;13.73;9.90;;;;;;;;;;5068301;28;20183;-85
2022/06/30 04:49:33;;;;;;;15.85;8.75;;;;;;;;;;5068997;28;20661;-84
2022/06/30 04:51:59;;;;;;;14.50;8.88;;;;;;;;;;5091156;28;20211;-84
2022/06/30 04:54:25;;;;;;;11.50;8.68;;;;;;;;;;5082955;28;20183;-83
2022/06/30 04:56:53;;;;;;;13.68;8.38;;;;;;;;;;5057299;28;20175;-84
2022/06/30 04:59:19;;;;;;;12.40;8.63;;;;;;;;;;5071854;28;20265;-84
2022/06/30 05:01:45;;;;;;;13.80;8.70;;;;;;;;;;5072664;28;20333;-84
2022/06/30 05:04:11;;;;;;;9.90;7.55;;;;;;;;;;5072843;28;20200;-83
2022/06/30 05:06:36;;;;;;;11.13;8.13;;;24.40;99.90;;;;;;5056125;28;20706;-84
2022/06/30 05:09:02;;;;;;;12.70;8.82;;;;;;;;;;5058841;28;20182;-83
2022/06/30 05:11:28;;;;;;;12.00;9.38;;;24.50;99.90;;;;;;5062967;28;20212;-83
2022/06/30 05:13:53;;;;;;;11.48;9.13;;;24.50;99.90;;;;;;5075317;28;20186;-84
2022/06/30 05:16:19;;;;;;;14.55;9.00;;;24.50;99.90;;;;;;5090453;28;20243;-83
2022/06/30 05:18:45;;;;;;;14.00;8.57;;;24.60;99.90;;;;;;5072103;28;20224;-83
2022/06/30 05:21:10;;;;;;;13.15;9.05;;;24.70;99.90;;;;;;5055672;28;20237;-83
2022/06/30 05:23:36;;;;;;;11.52;9.18;;;24.70;99.90;;;;;;5072891;28;20679;-84
2022/06/30 05:28:45;;;;;;;12.43;8.80;;;24.90;99.90;;;;;;5063460;28;20256;-84
2022/06/30 05:31:12;;;;;;;12.77;9.25;;;25.00;99.90;;;;;;5072924;28;20196;-84
2022/06/30 05:33:38;;;;;;;10.93;8.73;;;25.00;99.90;;;;;;5088186;28;20232;-85
2022/06/30 05:36:04;;;;;;;12.80;9.27;;;25.20;99.90;;;;;;5069950;28;20198;-86
2022/06/30 05:38:31;;;;;;;11.05;8.57;;;24.60;99.90;;;;;;5075011;28;20204;-86
2022/06/30 05:40:56;;;;;;;13.00;9.75;;;25.30;99.90;;;;;;5058598;28;20174;-86
2022/06/30 05:43:22;;;;;;;11.13;8.55;;;25.40;99.90;;;;;;5039754;28;20193;-86
2022/06/30 05:45:50;;;;;;;12.25;8.57;;;25.50;99.90;;;;;;5055553;28;20182;-85
2022/06/30 05:48:16;;;;;;;10.93;8.13;;;25.60;99.90;;;;;;5039982;28;20320;-86
2022/06/30 05:50:42;;;;;;;11.85;8.50;;;25.70;99.90;;;;;;5058252;28;20718;-86
2022/06/30 05:53:07;;;;;;;10.85;8.43;;;25.80;99.90;;;;;;5069058;28;20197;-85
2022/06/30 05:55:33;;;;;;;11.57;8.18;;;26.00;99.90;;;;;;5040606;28;20566;-85
2022/06/30 05:58:04;;;;;;;10.35;7.85;;;26.20;99.90;;;;;;5077376;28;20193;-85
2022/06/30 06:00:30;;;;;;;11.50;8.20;;;26.30;99.90;;;;;;5075174;28;20186;-86
2022/06/30 06:02:56;;;;;;;15.00;8.20;;;26.50;99.90;;;;;;5062713;28;20202;-86
2022/06/30 06:05:22;;;;;;;10.32;6.90;;;26.60;99.90;;;;;;5079409;28;20278;-86
2022/06/30 06:07:48;;;;;;;13.70;7.57;;;26.70;99.90;;;;;;5071709;28;20263;-86
2022/06/30 06:10:14;;;;;;;9.52;7.82;;;26.80;99.90;;;;;;5098208;28;20271;-85
2022/06/30 06:12:42;;;;;;;10.48;7.60;;;26.90;99.90;;;;;;5082260;28;20220;-86
2022/06/30 06:15:09;;;;;;;10.98;8.05;;;27.10;99.90;;;;;;5082392;28;20186;-85
2022/06/30 06:17:42;;;;;;;10.80;7.82;;;27.20;99.90;;;;;;5082845;28;20170;-85
2022/06/30 06:20:09;;;;;;;11.18;8.23;;;27.30;99.90;;;;;;5082896;28;20238;-88
2022/06/30 06:22:35;;;;;;;10.18;7.80;;;27.40;99.90;;;;;;5081507;28;20210;-86
2022/06/30 06:25:01;;;;;;;11.65;7.60;;;27.40;99.90;;;;;;5098804;28;20202;-85
2022/06/30 06:27:26;;;;;;;11.50;8.18;;;27.40;99.90;;;;;;5099486;28;20190;-86
2022/06/30 06:29:52;;;;;;;11.77;8.60;;;27.50;99.90;;;;;;5099001;28;20176;-87
2022/06/30 06:32:17;;;;;;;10.70;7.22;;;27.60;99.90;;;;;;5049771;28;20194;-84
2022/06/30 06:34:43;;;;;;;9.20;7.40;;;27.70;99.90;;;;;;5079511;28;20198;-84
2022/06/30 06:37:08;;;;;;;12.38;7.95;;;27.80;99.90;;;;;;5088292;28;20190;-88
2022/06/30 06:39:34;;;;;;;13.07;7.85;;;27.80;99.90;;;;;;5100189;28;20164;-85
2022/06/30 06:42:00;;;;;;;11.20;7.25;;;27.90;99.90;;;;;;5082770;28;20191;-83
2022/06/30 06:44:25;;;;;;;13.10;9.23;;;28.00;99.90;;;;;;5098596;28;20196;-84
2022/06/30 06:46:51;;;;;;;9.48;6.82;;;28.10;99.90;;;;;;5079668;28;20574;-84
2022/06/30 06:49:16;;;;;;;10.30;6.88;;;28.10;99.90;;;;;;5076501;28;20211;-85
2022/06/30 06:51:42;;;;;;;9.60;6.75;;;28.20;99.90;;;;;;5075085;28;20729;-84
2022/06/30 06:54:08;;;;;;;7.40;6.30;;;28.30;99.90;;;;;;5057825;28;20186;-85
2022/06/30 06:56:33;;;;;;;7.10;5.80;;;28.40;99.90;;;;;;5074568;28;20187;-85
2022/06/30 06:58:59;;;;;;;7.88;6.25;;;28.50;99.90;;;;;;5066221;28;20302;-84
2022/06/30 07:01:25;;;;;;;9.52;6.38;;;28.60;99.90;;;;;;5055543;28;20211;-86
2022/06/30 07:03:51;;;;;;;6.95;5.57;;;28.60;99.90;;;;;;5056601;28;20808;-85
2022/06/30 07:06:16;;;;;;;9.20;6.45;;;28.60;99.90;;;;;;5054542;28;20254;-85
2022/06/30 07:08:42;;;;;;;8.10;6.43;;;28.60;99.90;;;;;;5056841;28;20186;-84
2022/06/30 07:11:09;;;;;;;8.27;5.97;;;28.70;99.90;;;;;;5056122;28;20552;-84
2022/06/30 07:13:35;;;;;;;7.47;5.97;;;28.60;99.90;;;;;;5054537;28;20663;-85
2022/06/30 07:16:01;;;;;;;8.52;6.47;;;28.60;99.90;;;;;;5055367;28;20156;-84
2022/06/30 07:18:27;;;;;;;9.00;6.50;;;28.70;99.90;;;;;;5055200;28;20203;-85
2022/06/30 07:20:53;;;;;;;9.65;6.85;;;;;;;;;;5037126;28;20258;-85
2022/06/30 07:23:19;;;;;;;8.30;6.22;;;28.80;99.90;;;;;;5054792;28;20188;-84
2022/06/30 07:25:45;;;;;;;6.93;5.70;;;28.90;99.90;;;;;;5054883;28;20179;-83
2022/06/30 07:28:10;;;;;;;7.50;6.13;;;29.00;99.90;;;;;;5036585;28;20274;-84
2022/06/30 07:30:36;;;;;;;7.15;5.78;;;29.00;99.90;;;;;;5054618;28;20552;-84
2022/06/30 07:33:02;;;;;;;7.75;5.47;;;29.10;99.90;;;;;;5054229;28;20192;-84
2022/06/30 07:35:28;;;;;;;7.32;5.53;;;29.10;99.90;;;;;;5053093;28;20184;-84
2022/06/30 07:37:54;;;;;;;7.43;6.05;;;29.10;99.90;;;;;;5054155;28;20306;-84
2022/06/30 07:40:19;;;;;;;7.32;6.10;;;29.20;99.90;;;;;;5054177;28;20259;-84
2022/06/30 07:42:45;;;;;;;7.32;5.85;;;29.30;99.90;;;;;;5054260;28;20204;-84
2022/06/30 07:45:12;;;;;;;9.73;6.93;;;29.40;99.90;;;;;;5053142;28;20180;-84
2022/06/30 07:47:42;;;;;;;9.05;6.38;;;29.50;99.90;;;;;;5054071;28;20226;-84
2022/06/30 07:50:09;;;;;;;8.27;5.88;;;29.60;99.90;;;;;;5054426;28;20179;-85
2022/06/30 07:52:34;;;;;;;6.60;5.80;;;29.60;99.90;;;;;;5054013;28;20187;-84
2022/06/30 07:55:01;;;;;;;8.85;6.00;;;29.70;99.90;;;;;;5054146;28;20176;-85
2022/06/30 07:57:27;;;;;;;7.25;6.55;;;29.90;99.90;;;;;;5052414;28;20553;-86
2022/06/30 07:59:53;;;;;;;8.20;5.72;;;30.00;99.90;;;;;;5054067;28;20176;-84
2022/06/30 08:02:19;;;;;;;6.38;5.30;;;30.10;99.90;;;;;;5053499;28;20227;-85
2022/06/30 08:04:45;;;;;;;8.43;6.18;;;30.30;99.90;;;;;;5065886;28;20210;-84
2022/06/30 08:07:11;;;;;;;8.65;6.05;;;30.40;99.90;;;;;;5055820;28;20210;-84
2022/06/30 08:09:36;;;;;;;10.50;5.70;;;30.40;99.90;;;;;;5055567;28;20636;-85
2022/06/30 08:12:03;;;;;;;6.53;5.68;;;30.50;99.90;;;;;;5072846;28;20600;-84
2022/06/30 08:14:29;;;;;;;6.03;5.30;;;30.70;99.90;;;;;;5072674;28;20175;-84
2022/06/30 08:16:55;;;;;;;6.55;5.43;;;30.80;99.90;;;;;;5072716;28;20269;-84
2022/06/30 08:19:20;;;;;;;5.97;4.97;;;31.00;99.90;;;;;;5072136;28;20659;-87
2022/06/30 08:21:47;;;;;;;6.57;5.40;;;31.10;99.90;;;;;;5073547;28;20203;-86
2022/06/30 08:24:13;;;;;;;8.63;6.75;;;31.10;99.90;;;;;;5072338;28;20187;-85
2022/06/30 08:26:38;;;;;;;11.20;8.68;;;31.20;99.90;;;;;;5073608;28;20178;-85
2022/06/30 08:29:04;;;;;;;7.90;5.45;;;31.30;99.90;;;;;;5073371;28;20179;-85
2022/06/30 08:31:31;;;;;;;6.15;5.53;;;31.40;99.90;;;;;;5073271;28;20190;-86
2022/06/30 08:33:56;;;;;;;6.78;4.55;;;31.30;99.90;;;;;;5072452;28;20224;-85
2022/06/30 08:36:22;;;;;;;6.00;4.85;;;31.30;99.90;;;;;;5073177;28;20250;-85
2022/06/30 08:38:48;;;;;;;7.15;5.47;;;31.40;99.90;;;;;;5071748;28;20182;-85
2022/06/30 08:43:59;;;;;;;5.35;4.80;;;31.70;99.90;;;;;;5072475;28;20273;-85
2022/06/30 08:46:27;;;;;;;5.82;5.05;;;31.90;99.90;;;;;;5072733;28;20170;-87
2022/06/30 08:48:53;;;;;;;6.45;4.70;;;32.00;99.90;;;;;;5071462;28;20186;-85
2022/06/30 08:51:20;;;;;;;7.90;4.97;;;32.10;99.90;;;;;;5069600;28;20639;-85
2022/06/30 08:53:56;;;;;;;5.78;5.18;;;32.10;99.20;;;;;;5057055;28;20620;-86
2022/06/30 08:56:23;;;;;;;4.90;4.40;;;32.20;98.40;;;;;;5062933;28;20182;-84
2022/06/30 08:58:51;;;;;;;5.00;4.20;;;32.30;95.30;;;;;;5061464;28;20735;-85
2022/06/30 09:01:18;;;;;;;4.30;3.90;;;32.40;94.90;;;;;;5059150;28;20912;-85
2022/06/30 09:03:44;;;;;;;4.70;4.30;;;32.60;89.70;;;;;;5060487;28;20179;-85
2022/06/30 09:06:10;;;;;;;5.32;4.68;;;32.70;90.00;;;;;;5058716;28;20175;-86
2022/06/30 09:08:36;;;;;;;5.20;4.53;;;;;;;;;;5062726;28;20197;-86
2022/06/30 09:11:02;;;;;;;5.93;3.83;;;33.00;89.90;;;;;;5043703;28;20176;-86
2022/06/30 09:13:40;;;;;;;4.60;4.03;;;33.00;90.00;;;;;;5043519;28;20191;-86
2022/06/30 09:16:05;;;;;;;4.88;4.00;;;32.90;89.20;;;;;;5061388;28;20168;-85
2022/06/30 09:18:31;;;;;;;5.25;4.60;;;32.90;89.70;;;;;;5060329;28;20193;-86
2022/06/30 09:20:59;;;;;;;5.15;3.72;;;32.90;87.80;;;;;;5058518;28;20245;-86
2022/06/30 09:23:29;;;;;;;5.85;4.25;;;32.90;85.70;;;;;;5067104;28;20527;-86
2022/06/30 09:26:01;;;;;;;4.15;3.67;;;33.00;85.20;;;;;;5044424;28;20697;-86
2022/06/30 09:28:50;;;;;;;4.18;3.78;;;33.20;80.80;;;;;;5062513;28;20172;-85
2022/06/30 09:31:39;;;;;;;4.93;4.03;;;33.30;77.80;;;;;;5062699;28;20182;-87
2022/06/30 09:34:21;;;;;;;3.75;3.42;;;33.50;79.10;;;;;;5066017;28;20178;-86
2022/06/30 09:36:48;;;;;;;5.82;4.65;;;33.60;82.50;;;;;;5065665;28;20179;-88
2022/06/30 09:39:16;;;;;;;3.70;3.40;;;33.80;80.50;;;;;;5068404;28;20212;-88
2022/06/30 09:41:45;;;;;;;7.38;4.00;;;33.80;80.60;;;;;;5046444;28;20687;-88
2022/06/30 09:44:16;;;;;;;5.72;4.20;;;33.90;76.20;;;;;;5050412;28;20297;-87
2022/06/30 09:46:56;;;;;;;6.50;4.25;;;34.00;77.00;;;;;;5066948;28;20204;-86
2022/06/30 09:49:37;;;;;;;4.53;3.63;;;34.00;77.00;;;;;;5062855;28;20661;-85
2022/06/30 09:52:13;;;;;;;4.63;4.10;;;34.10;75.90;;;;;;5048351;28;20179;-85
2022/06/30 09:54:40;;;;;;;4.55;3.20;;;34.30;73.10;;;;;;5065243;28;20178;-86
2022/06/30 09:57:07;;;;;;;5.97;3.90;;;34.50;73.40;;;;;;5061825;28;20179;-87
2022/06/30 09:59:36;;;;;;;4.32;3.58;;;34.60;70.10;;;;;;5061635;28;20192;-85
2022/06/30 10:02:07;;;;;;;5.55;3.88;;;34.50;69.20;;;;;;5058223;28;20264;-86
2022/06/30 10:04:52;;;;;;;4.13;3.75;;;34.50;68.70;;;;;;5057937;28;20260;-85
2022/06/30 10:07:18;;;;;;;6.32;3.63;;;34.60;70.70;;;;;;5057295;28;20202;-85
2022/06/30 10:09:45;;;;;;;4.75;4.10;;;34.70;66.60;;;;;;5057579;28;20640;-85
2022/06/30 10:12:11;;;;;;;4.53;3.50;;;35.00;70.00;;;;;;5069207;28;20258;-85
2022/06/30 10:14:37;;;;;;;4.82;3.85;;;35.00;67.50;;;;;;5072679;28;20176;-84
2022/06/30 10:17:05;;;;;;;4.00;3.50;;;35.10;67.40;;;;;;5069447;28;20207;-85
2022/06/30 10:19:31;;;;;;;4.90;3.67;;;35.10;65.10;;;;;;5068801;28;20309;-85
2022/06/30 10:21:57;;;;;;;4.03;3.58;;;34.80;65.00;;;;;;5067297;28;20223;-86
2022/06/30 10:24:41;;;;;;;4.88;4.30;;;34.60;68.70;;;;;;5093495;27;20560;-84
2022/06/30 10:27:13;;;;;;;5.60;3.67;;;34.90;68.40;;;;;;5090112;28;20654;-85
2022/06/30 10:29:49;;;;;;;5.13;3.60;;;35.20;65.80;;;;;;5089782;28;20210;-88
2022/06/30 10:32:36;;;;;;;4.78;4.07;;;35.40;65.10;;;;;;5088531;28;20242;-85
2022/06/30 10:35:10;;;;;;;9.07;4.45;;;35.30;65.30;;;;;;5088708;28;20166;-86
2022/06/30 10:37:58;;;;;;;6.38;4.60;;;35.60;66.80;;;;;;5085230;28;20177;-85
2022/06/30 10:40:29;;;;;;;4.40;3.90;;;35.60;64.60;;;;;;5089090;28;20190;-86
2022/06/30 10:42:58;;;;;;;5.28;4.20;;;35.40;65.70;;;;;;5089049;28;20202;-84
2022/06/30 10:45:26;;;;;;;6.05;4.47;;;35.40;66.40;;;;;;5088841;28;20553;-86
2022/06/30 10:48:01;;;;;;;7.40;3.90;;;35.50;67.10;;;;;;5088119;28;20179;-86
2022/06/30 10:50:50;;;;;;;6.43;4.78;;;35.60;67.10;;;;;;5088143;28;20170;-85
2022/06/30 10:53:36;;;;;;;4.30;3.90;;;35.80;64.10;;;;;;5087862;28;20261;-85
2022/06/30 10:56:02;;;;;;;7.80;4.20;;;35.80;63.70;;;;;;5077739;28;20231;-84
2022/06/30 10:58:27;;;;;;;4.68;4.28;;;35.80;63.20;;;;;;5088152;28;20218;-85
2022/06/30 11:00:58;;;;;;;4.75;4.28;;;35.90;63.00;;;;;;5087281;28;20175;-85
2022/06/30 11:03:33;;;;;;;10.13;4.65;;;36.00;61.30;;;;;;5087003;28;20671;-87
2022/06/30 11:06:04;;;;;;;4.80;4.28;;;35.80;64.50;;;;;;5088600;28;20639;-85
2022/06/30 11:08:39;;;;;;;8.43;4.75;;;35.70;63.00;;;;;;5083648;28;20188;-85
2022/06/30 11:11:19;;;;;;;4.03;3.50;;;35.60;64.40;;;;;;5088180;28;20232;-85
2022/06/30 11:13:45;;;;;;;4.55;4.15;;;35.70;60.50;;;;;;5088290;28;20182;-88
2022/06/30 11:16:14;;;;;;;4.97;4.35;;;35.70;60.10;;;;;;5087655;28;20170;-85
2022/06/30 11:18:39;;;;;;;4.60;3.90;;;35.80;62.70;;;;;;5087054;28;20174;-85
2022/06/30 11:21:05;;;;;;;5.32;4.65;;;35.90;60.90;;;;;;5086758;28;20305;-85
2022/06/30 11:23:42;;;;;;;4.80;4.00;;;35.80;59.60;;;;;;5086671;28;20226;-85
2022/06/30 11:28:53;;;;;;;5.15;3.85;;;36.00;58.40;;;;;;5087274;28;20188;-84
2022/06/30 11:31:26;;;;;;;4.47;3.60;;;36.10;59.40;;;;;;5070200;28;20178;-84
2022/06/30 11:34:08;;;;;;;4.43;3.88;;;36.10;57.70;;;;;;5084648;28;20177;-85
2022/06/30 11:36:35;;;;;;;4.78;4.38;;;35.80;58.70;;;;;;5072654;28;20167;-85
2022/06/30 11:39:08;;;;;;;5.72;5.13;;;35.70;60.80;;;;;;5075067;28;20186;-85
2022/06/30 11:44:21;;;;;;;8.32;4.35;;;35.90;59.60;;;;;;5074884;28;20618;-85
2022/06/30 11:47:00;;;;;;;5.65;4.20;;;36.00;58.40;;;;;;5074857;28;20190;-87
2022/06/30 11:49:41;;;;;;;5.53;4.25;;;35.80;58.60;;;;;;5075092;28;20187;-88
2022/06/30 11:52:15;;;;;;;5.72;3.97;;;35.70;58.00;;;;;;5072766;28;20171;-87
2022/06/30 11:54:53;;;;;;;6.35;3.75;;;35.70;59.30;;;;;;5072408;28;20167;-87
2022/06/30 11:57:21;;;;;;;5.47;3.85;;;35.50;58.80;;;;;;5072131;28;20204;-86
2022/06/30 11:59:49;;;;;;;7.35;4.95;;;35.30;59.20;;;;;;5074033;28;20167;-84
2022/06/30 12:02:15;;;;;;;4.70;4.18;;;35.40;59.10;;;;;;5072651;28;20182;-84
2022/06/30 12:04:42;;;;;;;5.15;4.25;;;35.40;59.00;;;;;;5072952;28;20205;-87
2022/06/30 12:07:14;;;;;;;4.53;3.88;;;35.40;58.30;;;;;;5074050;28;20524;-87
2022/06/30 12:09:42;;;;;;;5.18;3.95;;;35.50;58.30;;;;;;5071760;28;20163;-88
2022/06/30 12:12:08;;;;;;;6.20;3.83;;;35.30;59.60;;;;;;5074118;28;20163;-87
2022/06/30 12:14:39;;;;;;;5.32;4.28;;;35.10;59.30;;;;;;5072962;28;20183;-88
2022/06/30 12:17:10;;;;;;;7.03;4.60;;;34.90;60.20;;;;;;5074412;28;20255;-88
2022/06/30 12:19:38;;;;;;;5.50;4.55;;;34.80;61.00;;;;;;5073467;28;20207;-85
2022/06/30 12:22:06;;;;;;;4.70;3.83;;;34.90;62.50;;;;;;5074209;28;20327;-87
2022/06/30 12:24:38;;;;;;;7.65;4.53;;;35.10;62.50;;;;;;5071584;28;20345;-87
2022/06/30 12:27:05;;;;;;;4.03;3.58;;;35.30;58.80;;;;;;5072370;28;20171;-87
2022/06/30 12:29:34;;;;;;;4.60;3.65;;;35.50;59.60;;;;;;5073614;28;20210;-87
2022/06/30 12:32:07;;;;;;;4.75;4.18;;;35.60;58.00;;;;;;5083334;28;20176;-86
2022/06/30 12:34:56;;;;;;;4.25;3.85;;;35.70;58.70;;;;;;5084596;28;20265;-85
2022/06/30 12:37:42;;;;;;;5.15;4.43;;;35.70;57.70;;;;;;5086074;28;20196;-86
2022/06/30 12:40:13;;;;;;;5.68;4.45;;;35.70;56.90;;;;;;5078313;28;20191;-85
2022/06/30 12:42:54;;;;;;;5.25;4.07;;;35.80;58.20;;;;;;5094195;28;20198;-86
2022/06/30 12:45:49;;;;;;;4.88;4.40;;;35.80;58.70;;;;;;5093515;28;20658;-85
2022/06/30 12:48:39;;;;;;;5.82;4.05;;;35.70;59.30;;;;;;5081176;28;20463;-85
2022/06/30 12:51:04;;;;;;;4.88;3.97;;;35.60;59.60;;;;;;5078699;28;20175;-85
2022/06/30 12:53:30;;;;;;;6.10;5.18;;;35.70;59.40;;;;;;5072766;28;20239;-84
2022/06/30 12:55:59;;;;;;;7.18;4.07;;;35.70;60.00;;;;;;5072650;28;20195;-85
2022/06/30 12:58:25;;;;;;;4.35;3.95;;;35.80;59.50;;;;;;5070989;28;20171;-86
2022/06/30 13:00:55;;;;;;;4.93;4.43;;;35.80;60.30;;;;;;5071614;28;20186;-85
2022/06/30 13:03:20;;;;;;;5.05;4.20;;;35.90;59.80;;;;;;5070412;28;20246;-86
2022/06/30 13:05:46;;;;;;;4.63;4.00;;;35.80;59.10;;;;;;5057895;28;20254;-86
2022/06/30 13:08:11;;;;;;;4.40;3.95;;;35.70;59.60;;;;;;5069638;28;20198;-85
2022/06/30 13:13:21;;;;;;;3.78;3.42;;;35.80;60.90;;;;;;5071737;28;20221;-84